Terminal Aerodrome Forecast
Issued by NWS North Platte, NE

Home | Current Version | Previous Version | Graphics & Text | Print | Product List | Glossary On
Versions: 1 2 3 4 5 6 7 8 9 10 11 12 13 14 15 16 17
000
FTUS43 KLBF 072100 AAA
TAFVTN
TAF AMD
KVTN 072129Z 0721/0818 35012G19KT P6SM BKN120
     FM072200 35010KT P6SM -RA VCTS SCT050CB BKN100
     FM080200 32008KT P6SM SKC
     FM081500 33012G19KT P6SM SKC=

USA.gov is the U.S. government's official web portal to all federal, state and local government web resources and services.